Time;durP1;ratioP1;P1;durP2;ratioP2;P2;SDS_P1;SDS_P2;PMS_P1;PMS_P2;Temp;Humidity;BMP_temperature;BMP_pressure;BME280_temperature;BME280_humidity;BME280_pressure;Samples;Min_cycle;Max_cycle;Signal;HPM_P1;HPM_P2
2022/05/11 00:00:09;;;;;;;3.67;3.20;;;;;;;15.63;51.84;99866.06;5134758;27;20255;-62
2022/05/11 00:02:37;;;;;;;7.70;3.47;;;;;;;15.59;52.43;99865.69;5134858;27;20197;-62
2022/05/11 00:05:05;;;;;;;3.10;2.70;;;;;;;15.58;52.07;99861.38;5134330;27;20646;-62
2022/05/11 00:07:32;;;;;;;4.77;2.87;;;;;;;15.49;52.57;99870.69;5134345;27;20194;-62
2022/05/11 00:09:59;;;;;;;6.10;3.40;;;;;;;15.43;53.18;99855.53;5134459;27;20717;-62
2022/05/11 00:12:26;;;;;;;8.30;3.60;;;;;;;15.24;53.33;99856.44;5134726;27;20623;-62
2022/05/11 00:14:54;;;;;;;6.97;2.87;;;;;;;15.18;53.05;99854.66;5131986;27;20201;-62
2022/05/11 00:17:21;;;;;;;3.97;2.93;;;;;;;15.18;53.03;99851.97;5131786;27;20281;-62
2022/05/11 00:19:48;;;;;;;3.73;2.80;;;;;;;15.14;53.26;99849.94;5134577;27;20223;-62
2022/05/11 00:22:14;;;;;;;2.70;2.20;;;;;;;15.02;53.51;99844.47;5134256;27;20250;-62
2022/05/11 00:24:41;;;;;;;7.97;2.50;;;;;;;14.85;54.22;99851.38;5134244;27;20250;-62
2022/05/11 00:27:07;;;;;;;3.63;2.20;;;;;;;14.70;55.05;99848.16;5134732;27;20233;-62
2022/05/11 00:29:34;;;;;;;2.00;1.90;;;;;;;14.57;55.51;99852.75;5134014;27;20217;-62
2022/05/11 00:32:02;;;;;;;3.73;2.17;;;;;;;14.39;56.16;99847.28;5134650;27;20238;-62
2022/05/11 00:34:29;;;;;;;2.57;2.20;;;;;;;14.23;56.56;99856.59;5134009;27;20193;-62
2022/05/11 00:36:55;;;;;;;4.87;2.17;;;;;;;14.16;56.82;99850.41;5133994;27;20198;-62
2022/05/11 00:39:22;;;;;;;2.47;2.27;;;;;;;14.11;56.04;99847.56;5133820;27;20194;-62
2022/05/11 00:41:49;;;;;;;2.10;1.90;;;;;;;14.01;56.25;99852.50;5134241;27;20282;-62
2022/05/11 00:44:16;;;;;;;2.50;2.10;;;;;;;14.03;56.65;99846.94;5133905;27;20193;-61
2022/05/11 00:46:50;;;;;;;5.70;2.03;;;;;;;14.08;56.27;99842.63;5133509;27;20688;-61
2022/05/11 00:49:34;;;;;;;4.47;2.20;;;;;;;14.07;56.21;99850.84;5134072;27;20250;-61
2022/05/11 00:52:05;;;;;;;2.07;1.87;;;;;;;13.97;56.50;99859.28;5134089;27;20237;-62
2022/05/11 00:54:35;;;;;;;5.03;1.87;;;;;;;14.02;56.24;99856.81;5133423;27;20700;-61
2022/05/11 00:57:06;;;;;;;2.43;2.23;;;;;;;14.01;56.06;99852.50;5133985;27;20210;-62
2022/05/11 00:59:39;;;;;;;2.30;2.17;;;;;;;13.92;56.50;99853.75;5133922;27;20190;-62
2022/05/11 01:02:06;;;;;;;2.17;1.70;;;;;;;13.94;56.55;99851.72;5133816;27;20210;-62
2022/05/11 01:04:37;;;;;;;2.20;2.00;;;;;;;14.01;56.32;99852.50;5133767;27;20221;-61
2022/05/11 01:07:05;;;;;;;3.63;1.90;;;;;;;14.07;56.42;99846.31;5133334;27;20663;-62
2022/05/11 01:09:32;;;;;;;2.67;2.20;;;;;;;14.11;56.49;99847.56;5133056;27;20217;-61
2022/05/11 01:12:02;;;;;;;2.40;2.20;;;;;;;14.14;56.85;99844.44;5133118;27;20189;-61
2022/05/11 01:14:31;;;;;;;2.10;2.00;;;;;;;14.14;57.43;99847.09;5133304;27;20243;-61
2022/05/11 01:16:59;;;;;;;2.93;1.97;;;;;;;14.16;57.42;99838.88;5133626;27;20269;-61
2022/05/11 01:19:28;;;;;;;3.70;2.43;;;;;;;14.15;58.17;99843.44;5133340;27;20204;-61
2022/05/11 01:22:03;;;;;;;2.13;2.00;;;;;;;14.09;58.65;99844.25;5133020;27;20198;-61
2022/05/11 01:24:35;;;;;;;6.07;2.63;;;;;;;13.99;59.23;99837.72;5133465;27;20269;-61
2022/05/11 01:27:27;;;;;;;4.53;2.43;;;;;;;13.85;59.17;99852.94;5134058;27;20270;-63
2022/05/11 01:29:54;;;;;;;6.30;2.30;;;;;;;13.79;59.72;99847.59;5133752;27;20209;-61
2022/05/11 01:32:23;;;;;;;8.40;2.40;;;;;;;13.68;60.86;99851.72;5133131;27;20197;-61
2022/05/11 01:34:57;;;;;;;2.77;2.57;;;;;;;13.63;60.60;99854.19;5132809;27;20225;-61
2022/05/11 01:37:24;;;;;;;2.80;2.60;;;;;;;13.59;60.96;99847.63;5127047;28;20182;-62
2022/05/11 01:39:52;;;;;;;6.33;2.80;;;;;;;13.62;61.08;99849.91;5127645;27;20255;-62
2022/05/11 01:42:20;;;;;;;3.80;2.40;;;;;;;13.64;61.35;99844.34;5127789;27;20702;-62
2022/05/11 01:44:47;;;;;;;5.83;2.80;;;;;;;13.68;61.38;99846.38;5128177;27;20201;-62
2022/05/11 01:47:14;;;;;;;6.23;2.90;;;;;;;13.67;61.86;99839.41;5127945;27;20243;-66
2022/05/11 01:49:40;;;;;;;5.70;2.60;;;;;;;13.67;61.94;99850.09;5129175;27;20310;-61
2022/05/11 01:52:07;;;;;;;5.77;2.77;;;;;;;13.73;61.67;99849.25;5137088;27;20194;-61
2022/05/11 01:54:34;;;;;;;3.80;3.07;;;;;;;13.79;61.47;99852.94;5136890;27;20242;-61
2022/05/11 01:57:02;;;;;;;8.37;2.60;;;;;;;13.77;61.69;99839.00;5136822;27;20194;-61
2022/05/11 01:59:29;;;;;;;6.47;2.80;;;;;;;13.78;61.78;99852.16;5137749;27;20243;-61
2022/05/11 02:01:55;;;;;;;3.57;3.23;;;;;;;13.69;61.68;99842.69;5136979;27;20235;-61
2022/05/11 02:09:50;;;;;;;5.40;3.00;;;;;;;13.61;63.13;99856.28;5137277;27;20204;-61
2022/05/11 02:12:18;;;;;;;3.80;3.23;;;;;;;13.56;63.12;99857.91;5136861;27;20254;-61
2022/05/11 02:14:45;;;;;;;6.17;3.20;;;;;;;13.59;63.39;99863.66;5136832;27;20194;-61
2022/05/11 02:17:12;;;;;;;6.23;3.47;;;;;;;13.61;63.89;99861.63;5137082;27;20190;-61
2022/05/11 02:19:39;;;;;;;3.50;3.27;;;;;;;13.58;63.83;99861.19;5136668;27;20251;-61
2022/05/11 02:22:05;;;;;;;13.27;3.40;;;;;;;13.55;64.53;99862.41;5137226;27;20186;-61
2022/05/11 02:24:32;;;;;;;5.77;3.10;;;;;;;13.55;64.84;99862.41;5136630;27;20192;-61
2022/05/11 02:27:02;;;;;;;9.87;4.33;;;;;;;13.52;64.95;99856.69;5136633;27;20278;-61
2022/05/11 02:29:30;;;;;;;3.77;3.40;;;;;;;13.46;65.50;99858.31;5136078;27;20221;-61
2022/05/11 02:31:56;;;;;;;3.70;3.33;;;;;;;13.50;65.48;99856.88;5136200;27;20190;-61
2022/05/11 02:37:07;;;;;;;6.03;4.40;;;;;;;13.42;65.80;99857.09;5136294;27;20266;-61
2022/05/11 02:39:34;;;;;;;7.30;3.80;;;;;;;13.36;66.69;99855.22;5136006;27;20321;-61
2022/05/11 02:42:00;;;;;;;6.20;4.10;;;;;;;13.37;66.69;99846.22;5136293;27;20221;-62
2022/05/11 02:44:27;;;;;;;5.80;4.10;;;;;;;13.43;66.40;99844.59;5136222;27;20674;-61
2022/05/11 02:46:55;;;;;;;8.53;3.93;;;;;;;13.45;66.53;99835.34;5136188;27;20194;-62
2022/05/11 02:49:22;;;;;;;6.60;4.07;;;;;;;13.44;66.88;99849.69;5136663;27;20225;-61
2022/05/11 02:51:49;;;;;;;6.70;4.07;;;;;;;13.47;67.08;99846.63;5135832;27;20662;-61
2022/05/11 02:54:16;;;;;;;4.37;4.00;;;;;;;13.47;67.33;99849.28;5136313;27;20190;-61
2022/05/11 02:56:42;;;;;;;13.87;4.53;;;;;;;13.43;67.36;99848.03;5136021;27;20251;-61
2022/05/11 02:59:09;;;;;;;6.53;5.20;;;;;;;13.36;67.40;99852.56;5135912;27;20676;-61
2022/05/11 03:01:36;;;;;;;7.40;4.90;;;;;;;13.19;68.05;99856.66;5135030;27;20221;-61
2022/05/11 03:04:04;;;;;;;6.40;4.73;;;;;;;13.23;67.70;99863.22;5135591;27;20247;-61
2022/05/11 03:06:31;;;;;;;11.27;4.93;;;;;;;13.25;68.07;99866.53;5135818;27;20194;-61
2022/05/11 03:08:58;;;;;;;8.40;3.97;;;;;;;13.26;68.15;99865.50;5135652;27;20254;-61
2022/05/11 03:11:24;;;;;;;8.33;4.17;;;;;;;13.12;69.10;99849.69;5135410;27;20238;-61
2022/05/11 03:13:51;;;;;;;5.97;4.47;;;;;;;13.07;68.88;99852.94;5135963;27;20190;-61
2022/05/11 03:16:18;;;;;;;6.63;4.77;;;;;;;12.96;68.61;99861.53;5136378;27;20196;-61
2022/05/11 03:18:45;;;;;;;5.70;4.63;;;;;;;12.90;68.52;99857.00;5135258;27;20304;-61
2022/05/11 03:21:13;;;;;;;5.90;4.37;;;;;;;12.81;68.24;99858.19;5136337;27;20190;-61
2022/05/11 03:23:40;;;;;;;7.47;4.60;;;;;;;12.76;68.94;99855.31;5135345;27;20248;-61
2022/05/11 03:26:06;;;;;;;8.63;5.40;;;;;;;12.74;68.31;99862.69;5135077;27;20641;-61
2022/05/11 03:28:33;;;;;;;6.07;4.83;;;;;;;12.67;68.89;99858.38;5135403;27;20190;-61
2022/05/11 03:31:00;;;;;;;5.83;4.93;;;;;;;12.71;69.25;99857.78;5134946;27;20239;-61
2022/05/11 03:36:11;;;;;;;5.97;4.70;;;;;;;12.92;68.26;99860.28;5135390;27;20641;-61
2022/05/11 03:38:39;;;;;;;6.00;5.23;;;;;;;12.98;68.50;99864.84;5135484;27;20186;-61
2022/05/11 03:41:06;;;;;;;8.03;4.47;;;;;;;13.11;68.16;99864.84;5134846;27;20229;-61
2022/05/11 03:43:32;;;;;;;12.63;6.90;;;;;;;13.23;68.37;99868.56;5135163;27;20215;-61
2022/05/11 03:45:59;;;;;;;12.93;6.10;;;;;;;13.29;67.91;99872.25;5134791;27;20247;-61
2022/05/11 03:48:26;;;;;;;8.83;6.07;;;;;;;13.36;67.84;99875.78;5135092;27;20226;-61
2022/05/11 03:50:53;;;;;;;12.30;6.30;;;;;;;13.38;68.36;99876.38;5134489;27;20662;-61
2022/05/11 03:53:20;;;;;;;9.13;6.93;;;;;;;13.48;68.04;99869.59;5134626;27;20712;-61
2022/05/11 03:55:48;;;;;;;10.87;6.03;;;;;;;13.83;67.38;99871.03;5134916;27;20190;-61
2022/05/11 03:58:15;;;;;;;6.00;5.17;;;;;;;14.42;64.94;99879.72;5134569;27;20247;-61
2022/05/11 04:00:42;;;;;;;9.50;6.20;;;;;;;15.14;63.03;99871.34;5134796;27;20193;-61
2022/05/11 04:03:08;;;;;;;10.17;5.10;;;;;;;15.84;59.66;99874.53;5134419;27;20194;-61
2022/05/11 04:05:35;;;;;;;6.00;5.40;;;;;;;16.40;57.46;99889.59;5134663;27;20655;-61
2022/05/11 04:08:02;;;;;;;6.27;5.17;;;;;;;16.86;55.69;99898.75;5135499;27;20190;-62
2022/05/11 04:10:29;;;;;;;10.90;5.53;;;;;;;17.53;54.09;99897.63;5134154;27;20702;-62
2022/05/11 04:12:58;;;;;;;5.03;4.63;;;;;;;18.20;51.46;99900.56;5133314;27;20732;-63
2022/05/11 04:15:25;;;;;;;5.13;4.63;;;;;;;18.65;49.69;99904.28;5134519;27;20197;-63
2022/05/11 04:17:51;;;;;;;6.40;4.70;;;;;;;19.28;48.34;99904.19;5135290;27;20189;-63
2022/05/11 04:20:20;;;;;;;12.60;4.90;;;;;;;19.48;47.06;99891.88;5134728;27;20198;-63
2022/05/11 04:22:47;;;;;;;12.27;4.77;;;;;;;19.89;45.15;99879.88;5135214;27;20190;-64
2022/05/11 04:25:15;;;;;;;6.80;5.17;;;;;;;20.44;44.49;99902.28;5134400;27;20197;-63
2022/05/11 04:27:42;;;;;;;13.27;4.40;;;;;;;20.72;42.52;99907.50;5133956;27;20654;-64
2022/05/11 04:30:11;;;;;;;11.90;4.60;;;;;;;21.05;41.39;99912.78;5133816;27;20634;-63
2022/05/11 04:32:38;;;;;;;23.00;5.43;;;;;;;21.27;40.84;99910.06;5134074;27;20676;-63
2022/05/11 04:35:05;;;;;;;3.90;3.57;;;;;;;21.36;40.54;99914.72;5134409;27;20190;-64
2022/05/11 04:37:32;;;;;;;7.13;4.40;;;;;;;21.32;40.43;99916.34;5134125;27;20273;-64
2022/05/11 04:39:59;;;;;;;4.30;3.87;;;;;;;21.51;40.85;99928.41;5133725;27;20735;-63
2022/05/11 04:42:25;;;;;;;4.87;4.40;;;;;;;22.21;39.12;99929.00;5134530;27;20282;-64
2022/05/11 04:44:53;;;;;;;6.97;3.90;;;;;;;22.65;38.03;99924.97;5133835;27;20654;-64
2022/05/11 04:47:21;;;;;;;10.30;4.60;;;;;;;22.60;37.73;99918.69;5134189;27;20562;-64
2022/05/11 04:49:48;;;;;;;7.37;4.13;;;;;;;22.57;38.07;99922.75;5134282;27;20230;-63
2022/05/11 04:52:17;;;;;;;15.17;4.23;;;;;;;22.75;38.07;99929.59;5133416;27;20655;-64
2022/05/11 04:54:48;;;;;;;7.73;4.00;;;;;;;22.94;36.88;99917.19;5133329;27;20250;-64
2022/05/11 04:57:16;;;;;;;8.13;3.93;;;;;;;23.13;36.90;99921.91;5133872;27;20189;-63
2022/05/11 04:59:49;;;;;;;11.20;4.10;;;;;;;23.93;35.15;99922.03;5133591;27;20186;-64
2022/05/11 05:02:18;;;;;;;11.60;4.13;;;;;;;23.89;35.69;99925.53;5134453;27;20184;-64
2022/05/11 05:04:47;;;;;;;8.60;4.23;;;;;;;23.83;34.98;99932.88;5133189;27;20195;-64
2022/05/11 05:07:13;;;;;;;4.53;3.73;;;;;;;24.04;35.08;99934.53;5133533;27;20192;-64
2022/05/11 05:09:41;;;;;;;22.03;6.43;;;;;;;24.31;34.62;99929.59;5133551;27;20188;-63
2022/05/11 05:12:09;;;;;;;7.17;4.07;;;;;;;24.77;34.31;99928.41;5133460;27;20294;-63
2022/05/11 05:14:36;;;;;;;12.93;4.13;;;;;;;25.02;33.67;99923.97;5133053;27;20192;-63
2022/05/11 05:17:04;;;;;;;7.50;3.73;;;;;;;25.15;32.97;99923.34;5133072;27;20664;-63
2022/05/11 05:19:32;;;;;;;11.50;4.53;;;;;;;25.40;32.99;99924.03;5132936;27;20193;-64
2022/05/11 05:22:02;;;;;;;5.37;4.10;;;;;;;25.86;31.67;99928.03;5134114;27;20228;-64
2022/05/11 05:24:29;;;;;;;11.47;4.53;;;;;;;26.69;30.79;99931.34;5133024;27;20201;-63
2022/05/11 05:26:56;;;;;;;8.33;4.03;;;;;;;27.26;29.07;99934.72;5132953;27;20211;-64
2022/05/11 05:32:07;;;;;;;6.33;3.70;;;;;;;25.87;31.25;99926.13;5126507;27;20266;-64
2022/05/11 05:34:34;;;;;;;12.30;4.30;;;;;;;25.65;31.81;99925.75;5121242;27;20195;-68
2022/05/11 05:37:02;;;;;;;8.10;3.47;;;;;;;25.89;31.97;99929.38;5121926;27;20618;-69
2022/05/11 05:39:29;;;;;;;10.93;3.20;;;;;;;26.46;33.40;99934.84;5132722;27;20242;-68
2022/05/11 05:41:55;;;;;;;11.37;3.57;;;;;;;26.89;32.24;99939.28;5117326;27;20194;-68
2022/05/11 05:44:24;;;;;;;16.20;3.47;;;;;;;26.99;29.78;99920.88;5112664;28;20557;-68
2022/05/11 05:46:50;;;;;;;12.57;3.67;;;;;;;26.26;31.62;99945.97;5112781;28;20190;-69
2022/05/11 05:49:17;;;;;;;5.60;3.50;;;;;;;26.43;32.16;99946.31;5117958;28;20273;-69
2022/05/11 05:51:44;;;;;;;10.70;2.93;;;;;;;26.81;30.91;99942.66;5132488;27;20271;-66
2022/05/11 05:54:12;;;;;;;9.00;3.27;;;;;;;27.32;31.25;99943.66;5128088;27;20745;-65
2022/05/11 05:56:39;;;;;;;10.23;3.30;;;;;;;27.52;30.24;99954.28;5127376;27;20206;-65
2022/05/11 05:59:10;;;;;;;6.37;2.73;;;;;;;27.16;29.78;99948.47;5132593;27;20198;-66
2022/05/11 06:01:36;;;;;;;3.83;3.30;;;;;;;26.95;30.45;99954.50;5133029;27;20190;-66
2022/05/11 06:04:05;;;;;;;5.10;3.00;;;;;;;26.66;31.37;99957.28;5129611;27;20194;-66
2022/05/11 06:06:31;;;;;;;4.10;2.60;;;;;;;26.42;31.02;99956.41;5128094;27;20205;-67
2022/05/11 06:08:58;;;;;;;3.57;2.77;;;;;;;26.27;32.53;99953.03;5128085;27;20255;-67
2022/05/11 06:11:26;;;;;;;4.23;3.00;;;;;;;26.12;31.81;99953.97;5127787;27;20245;-67
2022/05/11 06:13:54;;;;;;;4.13;3.00;;;;;;;25.22;33.31;99945.56;5131803;27;20194;-66
2022/05/11 06:16:20;;;;;;;15.87;3.17;;;;;;;24.74;34.11;99950.69;5132979;27;20186;-66
2022/05/11 06:18:48;;;;;;;4.47;2.70;;;;;;;24.26;34.57;99942.38;5132296;27;20190;-67
2022/05/11 06:21:16;;;;;;;5.60;2.63;;;;;;;23.92;35.26;99944.84;5128028;27;20216;-69
2022/05/11 06:23:44;;;;;;;5.43;2.80;;;;;;;23.76;35.66;99950.47;5124352;27;20209;-70
2022/05/11 06:26:11;;;;;;;3.27;3.07;;;;;;;23.69;36.24;99947.25;5115995;28;20737;-68
2022/05/11 06:28:41;;;;;;;4.20;2.37;;;;;;;23.54;35.85;99955.34;5112201;28;20193;-66
2022/05/11 06:31:07;;;;;;;9.67;3.33;;;;;;;23.50;35.47;99949.66;5112114;28;20225;-67
2022/05/11 06:33:34;;;;;;;3.97;2.70;;;;;;;23.49;35.66;99947.22;5125177;28;20195;-67
2022/05/11 06:36:01;;;;;;;8.53;2.50;;;;;;;23.46;35.88;99948.56;5127898;27;20229;-67
2022/05/11 06:38:28;;;;;;;6.53;2.90;;;;;;;23.34;35.78;99949.88;5134698;27;20196;-66
2022/05/11 06:40:54;;;;;;;5.07;2.53;;;;;;;23.06;36.21;99943.00;5131897;27;20245;-67
2022/05/11 06:43:21;;;;;;;9.93;3.47;;;;;;;22.93;36.43;99950.81;5137012;27;20197;-68
2022/05/11 06:45:50;;;;;;;7.03;2.93;;;;;;;22.91;36.83;99942.94;5136234;27;20191;-66
2022/05/11 06:48:17;;;;;;;14.17;3.17;;;;;;;22.89;36.40;99944.28;5136603;27;20610;-66
2022/05/11 06:50:44;;;;;;;6.03;2.30;;;;;;;22.94;36.54;99949.72;5136292;27;20330;-66
2022/05/11 06:53:12;;;;;;;2.00;1.87;;;;;;;22.97;35.92;99949.19;5131254;27;20222;-67
2022/05/11 07:01:09;;;;;;;7.90;2.87;;;;;;;23.37;34.37;99952.91;5094411;27;20199;-66
2022/05/11 07:03:36;;;;;;;6.93;2.50;;;;;;;23.67;34.57;99944.81;5130600;27;20261;-65
2022/05/11 07:06:04;;;;;;;5.23;2.63;;;;;;;24.18;33.07;99943.72;5130731;27;20193;-66
2022/05/11 07:08:35;;;;;;;14.33;3.30;;;;;;;24.70;33.11;99951.50;5130799;27;20200;-66
2022/05/11 07:13:45;;;;;;;5.37;2.23;;;;;;;25.47;30.67;99948.22;5130453;27;20204;-68
2022/05/11 07:16:14;;;;;;;6.17;2.50;;;;;;;25.81;30.38;99947.16;5130534;27;20194;-66
2022/05/11 07:18:41;;;;;;;29.33;3.67;;;;;;;26.12;30.06;99942.25;5120470;27;20255;-66
2022/05/11 07:21:07;;;;;;;16.33;3.40;;;;;;;26.05;29.79;99939.06;5135534;27;20213;-66
2022/05/11 07:23:34;;;;;;;14.00;2.60;;;;;;;25.95;29.19;99939.16;5134590;27;20194;-66
2022/05/11 07:26:01;;;;;;;6.23;2.60;;;;;;;26.12;29.38;99939.53;5120823;27;20262;-65
2022/05/11 07:28:28;;;;;;;4.80;2.30;;;;;;;26.27;29.45;99940.22;5114686;28;20318;-65
2022/05/11 07:30:55;;;;;;;7.13;2.47;;;;;;;26.16;29.00;99940.59;5113866;27;20278;-66
2022/05/11 07:33:23;;;;;;;6.37;2.33;;;;;;;26.26;29.25;99938.59;5114234;28;20199;-66
2022/05/11 07:35:50;;;;;;;6.10;2.30;;;;;;;26.35;29.05;99933.31;5114657;28;20190;-67
2022/05/11 07:38:19;;;;;;;7.77;2.30;;;;;;;26.57;27.38;99930.91;5124433;27;20255;-67
2022/05/11 07:40:46;;;;;;;9.60;2.60;;;;;;;26.53;27.86;99925.22;5135029;27;20190;-67
2022/05/11 07:43:13;;;;;;;7.67;2.50;;;;;;;26.94;27.01;99929.13;5134692;27;20682;-67
2022/05/11 07:45:41;;;;;;;5.57;2.20;;;;;;;27.11;26.85;99934.09;5134720;27;20194;-66
2022/05/11 07:48:08;;;;;;;4.10;1.90;;;;;;;27.12;26.40;99933.78;5135777;27;20261;-68
2022/05/11 07:50:37;;;;;;;10.33;2.30;;;;;;;27.11;26.73;99926.72;5134511;27;20246;-68
2022/05/11 07:53:04;;;;;;;17.43;2.70;;;;;;;27.33;26.08;99928.91;5134613;27;20254;-68
2022/05/11 07:55:33;;;;;;;5.03;2.00;;;;;;;27.42;26.59;99921.66;5134889;27;20263;-68
2022/05/11 08:00:44;;;;;;;18.40;2.87;;;;;;;27.82;25.42;99915.59;5134204;27;20185;-69
2022/05/11 08:03:11;;;;;;;20.93;2.83;;;;;;;28.05;25.03;99915.47;5133207;27;20266;-66
2022/05/11 08:05:40;;;;;;;4.37;2.03;;;;;;;27.76;25.09;99903.13;5134553;27;20635;-66
2022/05/11 08:08:09;;;;;;;9.30;2.40;;;;;;;27.63;26.56;99912.88;5134270;27;20198;-66
2022/05/11 08:10:38;;;;;;;5.13;2.23;;;;;;;27.75;26.42;99901.50;5134120;27;20194;-66
2022/05/11 08:13:07;;;;;;;19.17;3.60;;;;;;;28.05;25.88;99904.53;5134860;27;20245;-65
2022/05/11 08:15:35;;;;;;;2.47;2.27;;;;;;;28.04;26.46;99904.84;5134613;27;20194;-65
2022/05/11 08:18:04;;;;;;;2.90;2.37;;;;;;;28.25;26.24;99903.34;5134388;27;20190;-65
2022/05/11 08:20:34;;;;;;;7.03;2.60;;;;;;;28.50;25.18;99906.47;5134071;27;20202;-65
2022/05/11 08:23:04;;;;;;;3.73;1.97;;;;;;;28.52;24.50;99900.69;5133934;27;20197;-64
2022/05/11 08:25:33;;;;;;;3.73;1.60;;;;;;;28.42;23.63;99900.91;5119705;27;20201;-64
2022/05/11 08:28:01;;;;;;;21.93;3.07;;;;;;;28.41;23.96;99897.34;5113327;28;20194;-64
2022/05/11 08:33:22;;;;;;;3.27;1.90;;;;;;;28.60;23.61;99899.97;5125721;27;20274;-66
2022/05/11 08:35:50;;;;;;;10.43;2.33;;;;;;;28.78;23.91;99879.91;5133551;27;20557;-66
2022/05/11 08:38:18;;;;;;;3.83;2.47;;;;;;;29.16;23.62;99895.78;5133385;27;20244;-65
2022/05/11 08:40:51;;;;;;;5.07;2.53;;;;;;;29.23;23.17;99890.69;5133734;27;20215;-66
2022/05/11 08:43:20;;;;;;;3.03;2.73;;;;;;;29.32;23.43;99895.44;5133281;27;20227;-66
2022/05/11 08:45:55;;;;;;;6.23;2.37;;;;;;;29.47;22.72;99893.16;5133191;27;20281;-66
2022/05/11 08:48:33;;;;;;;7.97;2.63;;;;;;;29.48;21.81;99888.50;5134054;27;20264;-65
2022/05/11 08:51:03;;;;;;;6.97;2.47;;;;;;;29.32;22.28;99888.06;5133574;27;20748;-66
2022/05/11 08:53:39;;;;;;;6.67;2.60;;;;;;;29.44;21.33;99888.31;5133615;27;20193;-66
2022/05/11 08:56:15;;;;;;;13.93;2.80;;;;;;;29.82;21.78;99883.28;5116946;27;20640;-65
2022/05/11 08:58:49;;;;;;;2.60;2.40;;;;;;;29.90;22.08;99886.09;5121207;27;20625;-68
2022/05/11 09:01:23;;;;;;;7.10;2.00;;;;;;;29.82;22.36;99889.59;5131010;27;20277;-67
2022/05/11 09:03:53;;;;;;;3.83;2.50;;;;;;;29.84;22.86;99892.81;5131362;27;20218;-67
2022/05/11 09:06:24;;;;;;;3.77;2.07;;;;;;;29.73;21.77;99886.00;5131603;27;20182;-66
2022/05/11 09:08:53;;;;;;;11.43;2.20;;;;;;;29.74;21.56;99882.13;5131816;27;20218;-66
2022/05/11 09:11:25;;;;;;;13.27;3.23;;;;;;;29.75;21.92;99888.38;5131322;27;20210;-66
2022/05/11 09:13:52;;;;;;;7.37;3.33;;;;;;;29.73;22.21;99885.16;5131803;27;20190;-65
2022/05/11 09:16:23;;;;;;;11.73;2.87;;;;;;;29.93;21.35;99885.44;5132575;27;20255;-66
2022/05/11 09:18:49;;;;;;;6.17;2.37;;;;;;;29.95;20.66;99887.88;5133123;27;20543;-65
2022/05/11 09:21:29;;;;;;;1.83;1.73;;;;;;;30.04;20.83;99886.81;5133443;27;20190;-65
2022/05/11 09:24:28;;;;;;;2.23;2.13;;;;;;;29.69;21.21;99879.53;5133023;27;20636;-67
2022/05/11 09:27:07;;;;;;;3.00;1.97;;;;;;;29.65;20.47;99880.44;5112751;28;20609;-65
2022/05/11 09:29:37;;;;;;;5.83;2.70;;;;;;;29.81;20.57;99879.75;5112333;28;20183;-65
2022/05/11 09:32:38;;;;;;;3.33;3.10;;;;;;;29.83;20.33;99880.25;5124692;27;20246;-65
2022/05/11 09:35:36;;;;;;;5.37;2.53;;;;;;;29.96;20.42;99873.88;5069708;28;20192;-65
2022/05/11 09:38:07;;;;;;;2.83;2.33;;;;;;;29.98;19.77;99882.59;5069792;28;20245;-65
2022/05/11 09:40:54;;;;;;;5.63;2.90;;;;;;;29.73;20.11;99880.50;5106663;27;20187;-65
2022/05/11 09:43:31;;;;;;;16.47;4.07;;;;;;;30.04;20.13;99877.81;5116693;28;20182;-65
2022/05/11 09:45:58;;;;;;;3.73;2.70;;;;;;;30.26;18.69;99873.09;5133543;27;20181;-64
2022/05/11 09:48:28;;;;;;;5.10;4.07;;;;;;;30.42;19.10;99871.53;5133107;27;20230;-65
2022/05/11 09:50:56;;;;;;;5.97;3.73;;;;;;;30.36;17.59;99864.59;5132956;27;20234;-65
2022/05/11 09:53:33;;;;;;;10.47;3.97;;;;;;;30.40;18.51;99879.28;5132989;27;20245;-66
2022/05/11 09:56:17;;;;;;;12.43;3.83;;;;;;;30.69;18.86;99871.34;5133358;27;20186;-65
2022/05/11 09:58:44;;;;;;;3.70;3.33;;;;;;;30.80;18.75;99864.44;5133195;27;20196;-66
2022/05/11 10:01:13;;;;;;;2.93;2.60;;;;;;;30.63;19.46;99861.63;5132844;27;20209;-66
2022/05/11 10:03:46;;;;;;;2.60;2.40;;;;;;;30.52;19.93;99852.06;5132825;27;20198;-66
2022/05/11 10:06:15;;;;;;;4.10;2.37;;;;;;;30.41;19.50;99856.22;5144096;27;20242;-67
2022/05/11 10:08:44;;;;;;;3.10;2.23;;;;;;;30.65;19.73;99859.34;5153035;27;20203;-66
2022/05/11 10:11:18;;;;;;;5.13;2.70;;;;;;;30.67;19.76;99862.59;5154067;27;20204;-67
2022/05/11 10:13:52;;;;;;;2.80;2.50;;;;;;;30.33;20.16;99848.75;5157643;27;20186;-67
2022/05/11 10:22:07;;;;;;;4.80;2.73;;;;;;;30.58;20.28;99848.03;5134660;27;20225;-69
2022/05/11 10:24:53;;;;;;;2.67;2.47;;;;;;;30.74;20.73;99843.75;5128914;27;20187;-67
2022/05/11 10:27:31;;;;;;;3.30;3.00;;;;;;;30.93;20.13;99848.94;5114992;27;20248;-67
2022/05/11 10:30:08;;;;;;;6.47;2.63;;;;;;;30.54;20.63;99840.78;5114667;28;20244;-68
2022/05/11 10:32:46;;;;;;;4.30;2.70;;;;;;;30.50;21.26;99834.31;5132740;27;20222;-67
2022/05/11 10:35:18;;;;;;;3.87;2.97;;;;;;;30.64;21.74;99833.06;5133999;27;20308;-67
2022/05/11 10:37:59;;;;;;;4.80;2.60;;;;;;;30.76;22.01;99833.28;5135299;27;20194;-67
2022/05/11 10:40:32;;;;;;;2.80;2.63;;;;;;;30.55;21.24;99821.28;5131231;27;20644;-67
2022/05/11 10:43:15;;;;;;;2.43;2.30;;;;;;;30.77;21.25;99821.19;5125589;27;20711;-71
2022/05/11 10:45:49;;;;;;;3.27;2.80;;;;;;;30.84;21.25;99817.94;5135886;27;20239;-70
2022/05/11 10:48:37;;;;;;;6.33;2.83;;;;;;;30.55;21.33;99821.28;5136016;27;20286;-70
2022/05/11 10:51:10;;;;;;;3.50;2.70;;;;;;;30.01;22.12;99821.66;5136382;27;20186;-70
2022/05/11 10:53:42;;;;;;;4.50;3.00;;;;;;;30.17;22.00;99817.41;5136068;27;20259;-71
2022/05/11 10:56:27;;;;;;;3.83;2.90;;;;;;;30.16;22.00;99810.31;5135852;27;20186;-71
2022/05/11 10:59:08;;;;;;;3.90;2.77;;;;;;;30.33;22.50;99804.91;5136095;27;20251;-71
2022/05/11 11:01:45;;;;;;;5.10;3.40;;;;;;;30.67;22.44;99799.50;5135617;27;20681;-72
2022/05/11 11:04:28;;;;;;;4.07;3.00;;;;;;;30.72;22.88;99793.06;5135911;27;20646;-71
2022/05/11 11:07:13;;;;;;;3.80;3.50;;;;;;;30.69;21.58;99800.03;5136104;27;20234;-72
2022/05/11 11:09:51;;;;;;;13.93;4.57;;;;;;;30.81;22.30;99791.97;5153215;27;20189;-71
2022/05/11 11:12:34;;;;;;;7.27;3.80;;;;;;;30.63;22.38;99801.28;5156386;27;20289;-72
2022/05/11 11:15:11;;;;;;;14.40;4.27;;;;;;;30.42;22.58;99789.28;5156426;27;20192;-72
2022/05/11 11:17:38;;;;;;;5.53;3.27;;;;;;;30.44;22.58;99787.03;5156226;27;20177;-72
2022/05/11 11:20:08;;;;;;;3.03;2.83;;;;;;;30.57;21.84;99785.28;5155979;27;20681;-71
2022/05/11 11:23:08;;;;;;;5.57;3.40;;;;;;;30.62;21.91;99788.66;5155752;27;20197;-72
2022/05/11 11:25:52;;;;;;;6.27;3.40;;;;;;;30.57;22.20;99779.78;5126429;27;20214;-72
2022/05/11 11:28:21;;;;;;;20.50;4.57;;;;;;;30.66;22.14;99778.69;5115144;28;20251;-72
2022/05/11 11:31:17;;;;;;;4.90;3.37;;;;;;;30.90;22.36;99781.81;5116278;27;20673;-72
2022/05/11 11:34:18;;;;;;;9.17;3.97;;;;;;;30.86;22.44;99785.53;5132695;27;20698;-73
2022/05/11 11:36:45;;;;;;;10.57;6.67;;;;;;;31.11;23.24;99777.28;5135252;27;20193;-75
2022/05/11 11:39:15;;;;;;;15.87;13.50;;;;;;;31.02;22.62;99784.72;5134981;27;20194;-74
2022/05/11 11:42:09;;;;;;;6.60;4.70;;;;;;;30.89;22.24;99782.13;5119704;27;20230;-75
2022/05/11 11:44:41;;;;;;;9.77;5.87;;;;;;;30.79;23.19;99780.50;5129779;27;20178;-78
2022/05/11 11:47:35;;;;;;;17.93;14.97;;;;;;;30.89;24.51;99777.44;5135277;27;20194;-76
2022/05/11 11:50:04;;;;;;;20.93;4.20;;;;;;;30.88;22.14;99777.75;5134939;27;20723;-76
2022/05/11 11:52:36;;;;;;;7.83;3.97;;;;;;;30.66;23.15;99764.97;5134819;27;20217;-75
2022/05/11 11:55:08;;;;;;;4.93;3.07;;;;;;;30.44;22.13;99776.06;5134565;27;20698;-75
2022/05/11 11:57:35;;;;;;;5.37;3.60;;;;;;;30.52;23.41;99760.75;5135159;27;20189;-79
2022/05/11 12:00:06;;;;;;;5.70;3.07;;;;;;;30.63;22.72;99756.56;5134462;27;20650;-79
2022/05/11 12:02:40;;;;;;;4.53;2.90;;;;;;;30.67;22.37;99757.56;5135175;27;20274;-83
2022/05/11 12:05:13;;;;;;;4.97;3.00;;;;;;;30.50;23.01;99755.56;5135435;27;20394;-76
2022/05/11 12:16:10;;;;;;;4.53;2.90;;;;;;;30.59;22.85;99745.44;5113772;28;20228;-72
2022/05/11 12:18:40;;;;;;;6.67;3.37;;;;;;;30.74;22.65;99736.75;5113649;28;20194;-74
2022/05/11 12:21:11;;;;;;;6.43;3.63;;;;;;;30.83;22.95;99734.81;5125517;27;20201;-63
2022/05/11 12:23:48;;;;;;;12.83;3.73;;;;;;;30.99;22.43;99741.44;5155000;27;20253;-64
2022/05/11 12:26:22;;;;;;;11.57;3.87;;;;;;;30.89;22.10;99738.22;5113592;27;20226;-64